Terminal Aerodrome Forecast
Issued by NWS

Home | Current Version | Previous Version | Text Only | Print | Product List | Glossary On
Versions: 1 2 3 4 5 6 7 8 9 10 11 12 13
000
FTUS46 KMTR 102320
TAFOAK
TAF
KOAK 102320Z 1100/1206 19012KT 5SM -RA BR SCT008 OVC025
      TEMPO 1100/1102 2SM RA BR BKN008 OVC020
     FM110200 22010KT 5SM -RA BR OVC025
     FM110400 25008KT P6SM -SHRA SCT010 OVC025
     FM110600 30004KT P6SM SCT015 BKN028 OVC040
     FM111700 VRB03KT P6SM FEW020 SCT040 BKN200
     FM112000 29007KT P6SM BKN200=

USA.gov is the U.S. government's official web portal to all federal, state and local government web resources and services.